Time;durP1;ratioP1;P1;durP2;ratioP2;P2;SDS_P1;SDS_P2;PMS_P1;PMS_P2;Temp;Humidity;BMP_temperature;BMP_pressure;BME280_temperature;BME280_humidity;BME280_pressure;Samples;Min_cycle;Max_cycle;Signal;HPM_P1;HPM_P2
2023/09/28 00:04:13;;;;;;;55.53;21.27;;;;;;;12.13;73.92;100882.53;4862447;29;20128;-90
2023/09/28 00:07:08;;;;;;;58.97;22.42;;;;;;;12.15;73.99;100877.56;4835252;29;20037;-90
2023/09/28 00:09:49;;;;;;;68.82;22.27;;;;;;;11.77;74.15;100817.75;4833902;29;20045;-93
2023/09/28 00:13:20;;;;;;;60.90;21.50;;;;;;;12.19;73.53;100881.38;4833830;29;20491;-95
2023/09/28 00:15:46;;;;;;;64.05;22.67;;;;;;;11.99;73.18;100854.94;4863107;29;20045;-94
2023/09/28 00:18:18;;;;;;;52.37;20.60;;;;;;;11.97;73.96;100848.91;4868130;23;20083;-89
2023/09/28 00:21:10;;;;;;;50.20;22.15;;;;;;;12.18;73.65;100880.53;4854104;29;20554;-95
2023/09/28 00:23:36;;;;;;;48.75;20.55;;;;;;;11.91;73.71;100837.16;4977386;23;20056;-91
2023/09/28 00:26:02;;;;;;;49.88;20.73;;;;;;;12.22;74.02;100884.38;4854096;29;20135;-92
2023/09/28 00:28:31;;;;;;;50.58;20.00;;;;;;;12.19;73.91;100873.97;4888439;29;20033;-90
2023/09/28 00:32:04;;;;;;;64.75;20.92;;;;;;;12.29;73.52;100881.31;4906964;23;20067;-91
2023/09/28 00:34:30;;;;;;;61.60;22.00;;;;;;;11.65;72.90;100789.09;4875860;29;20060;-93
2023/09/28 00:37:13;;;;;;;71.45;19.98;;;;;;;11.96;73.04;100839.88;4855636;29;20120;-96
2023/09/28 00:40:20;;;;;;;50.45;19.83;;;;;;;12.19;72.80;100884.13;4859243;29;20052;-94
2023/09/28 00:43:27;;;;;;;43.97;19.13;;;;;;;12.19;73.35;100875.91;4875529;29;20671;-88
2023/09/28 00:45:53;;;;;;;51.13;19.00;;;;;;;12.20;73.98;100872.06;4854972;29;20044;-94
2023/09/28 00:48:42;;;;;;;49.03;20.05;;;;;;;11.55;73.62;100767.25;4870254;29;20040;-91
2023/09/28 00:52:07;;;;;;;61.40;19.13;;;;;;;12.25;73.30;100876.66;4870997;29;20067;-94
2023/09/28 00:55:19;;;;;;;73.43;19.42;;;;;;;11.80;73.47;100799.13;4876810;29;20036;-89
2023/09/28 00:57:47;;;;;;;46.33;18.35;;;;;;;11.95;73.66;100827.28;4880391;29;20139;-91
2023/09/28 01:01:19;;;;;;;49.95;17.33;;;;;;;12.30;74.10;100879.38;4865349;29;20048;-88
2023/09/28 01:04:51;;;;;;;45.08;17.38;;;;;;;12.35;73.53;100873.84;4872822;29;20530;-88
2023/09/28 01:07:42;;;;;;;35.63;16.45;;;;;;;12.29;73.74;100880.50;4856593;29;20587;-94
2023/09/28 01:10:23;;;;;;;33.67;17.33;;;;;;;11.88;74.66;100821.28;4872145;29;20056;-90
2023/09/28 01:12:50;;;;;;;37.33;17.27;;;;;;;12.02;74.99;100843.41;4872070;29;20048;-95
2023/09/28 01:15:28;;;;;;;40.35;17.40;;;;;;;11.91;74.73;100825.38;4872077;29;20040;-90
2023/09/28 01:17:54;;;;;;;40.15;18.05;;;;;;;11.86;74.35;100811.72;4872557;29;20048;-94
2023/09/28 01:20:37;;;;;;;42.95;18.92;;;;;;;12.05;73.22;100836.50;4872631;29;20051;-89
2023/09/28 01:23:04;;;;;;;41.40;17.95;;;;;;;11.92;73.35;100808.66;4872060;29;20040;-95
2023/09/28 01:25:31;;;;;;;40.20;16.95;;;;;;;12.23;73.24;100858.59;4889338;29;20060;-92
2023/09/28 01:28:48;;;;;;;41.40;17.42;;;;;;;12.33;73.36;100874.16;4893392;29;20051;-90
2023/09/28 01:31:38;;;;;;;32.35;16.17;;;;;;;11.75;73.60;100784.38;4843607;29;20060;-90
2023/09/28 01:35:11;;;;;;;33.10;15.43;;;;;;;12.31;73.99;100873.59;4854272;29;20073;-90
2023/09/28 01:39:07;;;;;;;33.20;16.00;;;;;;;12.30;74.42;100868.41;4854046;29;20491;-90
2023/09/28 01:41:35;;;;;;;42.33;16.17;;;;;;;11.75;73.72;100778.06;4856953;29;20052;-92
2023/09/28 01:44:02;;;;;;;40.08;15.60;;;;;;;12.32;73.66;100860.72;4863617;29;20066;-94
2023/09/28 01:47:27;;;;;;;37.38;15.38;;;;;;;12.28;73.36;100863.19;4834078;29;20476;-89
2023/09/28 01:50:13;;;;;;;37.63;16.30;;;;;;;11.97;73.88;100838.75;4834309;29;20493;-93
2023/09/28 01:52:39;;;;;;;38.13;16.75;;;;;;;11.65;74.29;100800.84;4877503;29;20036;-89
2023/09/28 01:55:05;;;;;;;36.03;15.85;;;;;;;11.82;74.39;100827.91;4853106;29;20184;-94
2023/09/28 01:57:44;;;;;;;35.77;16.23;;;;;;;11.82;73.60;100810.59;4884383;29;20041;-89
2023/09/28 02:00:36;;;;;;;33.75;15.77;;;;;;;12.18;73.86;100868.75;4853020;29;20033;-94
2023/09/28 02:03:18;;;;;;;33.20;16.27;;;;;;;11.78;73.74;100799.41;4882385;29;20049;-89
2023/09/28 02:05:44;;;;;;;33.35;15.70;;;;;;;11.82;73.77;100816.09;4866550;29;20472;-93
2023/09/28 02:08:10;;;;;;;31.85;14.65;;;;;;;11.98;74.50;100832.16;4850401;29;20040;-94
2023/09/28 02:10:37;;;;;;;31.73;14.57;;;;;;;11.91;74.61;100826.19;4851236;29;20132;-93
2023/09/28 02:13:13;;;;;;;27.88;13.27;;;;;;;12.06;74.71;100829.94;4859286;29;20045;-89
2023/09/28 02:16:25;;;;;;;42.33;13.68;;;;;;;12.28;74.39;100868.69;4863265;29;20049;-90
2023/09/28 02:18:57;;;;;;;30.75;13.07;;;;;;;11.99;74.85;100831.09;4867348;29;20116;-90
2023/09/28 02:21:23;;;;;;;28.42;13.23;;;;;;;12.08;74.66;100835.94;4852162;29;20041;-94
2023/09/28 02:23:59;;;;;;;27.87;13.03;;;;;;;12.03;75.07;100839.56;4879767;29;20139;-95
2023/09/28 02:27:22;;;;;;;33.05;13.43;;;;;;;12.28;74.57;100873.34;4881030;29;20046;-89
2023/09/28 02:29:53;;;;;;;30.77;13.48;;;;;;;11.86;74.71;100803.50;4886008;29;20144;-89
2023/09/28 02:32:34;;;;;;;29.17;13.82;;;;;;;12.18;74.75;100857.78;4872036;29;20048;-93
2023/09/28 02:36:05;;;;;;;29.65;12.70;;;;;;;12.33;74.65;100867.84;4870866;29;20048;-89
2023/09/28 02:39:41;;;;;;;28.30;13.05;;;;;;;12.35;74.21;100871.09;4870890;29;20112;-94
2023/09/28 02:46:27;;;;;;;32.80;12.82;;;;;;;11.62;74.19;100760.34;4806871;29;20087;-93
2023/09/28 02:48:55;;;;;;;27.35;12.60;;;;;;;11.84;74.49;100798.31;4815575;29;20085;-94
2023/09/28 02:51:27;;;;;;;27.00;13.32;;;;;;;11.89;74.22;100809.25;4795662;29;20099;-90
2023/09/28 02:54:08;;;;;;;27.35;13.18;;;;;;;12.09;74.24;100834.88;4780212;29;20046;-94
2023/09/28 02:57:38;;;;;;;29.23;12.93;;;;;;;12.24;74.63;100878.59;4825164;29;20062;-89
2023/09/28 03:00:25;;;;;;;34.83;12.95;;;;;;;11.69;74.43;100792.91;4809478;29;20114;-93
2023/09/28 03:02:56;;;;;;;24.40;12.48;;;;;;;12.02;74.69;100840.66;4824591;29;20050;-94
2023/09/28 03:06:15;;;;;;;30.05;13.13;;;;;;;12.06;74.37;100839.00;4814423;29;20050;-95
2023/09/28 03:08:56;;;;;;;30.27;13.95;;;;;;;12.09;74.23;100848.56;4811386;29;20091;-90
2023/09/28 03:11:47;;;;;;;22.75;13.18;;;;;;;12.29;74.24;100873.09;4828499;29;20046;-94
2023/09/28 03:14:30;;;;;;;32.65;14.02;;;;;;;12.03;74.11;100836.00;4799303;29;20161;-91
2023/09/28 03:17:00;;;;;;;28.05;12.90;;;;;;;11.72;74.10;100793.16;4785429;29;20074;-89
2023/09/28 03:22:14;;;;;;;22.95;12.70;;;;;;;11.76;73.95;100791.47;4822924;29;20072;-91
2023/09/28 03:24:46;;;;;;;30.43;12.80;;;;;;;11.93;73.71;100812.22;4877244;29;20139;-89
2023/09/28 03:30:49;;;;;;;31.05;12.18;;;;;;;11.85;74.00;100793.63;4880624;29;20065;-93
2023/09/28 03:33:42;;;;;;;23.20;12.63;;;;;;;12.37;73.85;100866.16;4833423;29;20587;-89
2023/09/28 03:36:25;;;;;;;22.25;12.38;;;;;;;12.08;73.79;100828.53;4833706;29;20057;-95
2023/09/28 03:39:16;;;;;;;23.42;12.18;;;;;;;12.32;73.92;100860.72;4834512;29;20037;-94
2023/09/28 03:42:15;;;;;;;26.13;12.27;;;;;;;12.21;73.85;100852.56;4851676;29;20595;-88
2023/09/28 03:45:46;;;;;;;37.35;12.40;;;;;;;12.36;73.86;100870.84;4859365;29;20040;-94
2023/09/28 03:48:34;;;;;;;26.85;11.95;;;;;;;12.15;73.73;100829.06;4870466;29;20054;-89
2023/09/28 03:51:16;;;;;;;33.10;12.27;;;;;;;11.90;73.41;100788.13;4878224;29;20053;-90
2023/09/28 03:54:11;;;;;;;24.65;12.00;;;;;;;12.52;73.29;100884.44;4853787;29;20132;-93
2023/09/28 03:56:58;;;;;;;35.92;14.45;;;;;;;12.03;73.24;100805.84;4850337;29;20056;-93
2023/09/28 03:59:25;;;;;;;34.00;14.40;;;;;;;12.10;73.04;100809.06;4862612;29;20076;-93
2023/09/28 04:02:06;;;;;;;28.60;12.90;;;;;;;11.96;73.05;100776.84;4883786;29;20045;-90
2023/09/28 04:05:39;;;;;;;27.58;14.15;;;;;;;12.55;73.25;100867.38;4856088;29;20567;-93
2023/09/28 04:09:07;;;;;;;34.72;14.20;;;;;;;12.56;73.15;100869.03;4873923;29;20104;-87
2023/09/28 04:11:37;;;;;;;36.55;15.00;;;;;;;12.19;73.81;100823.81;4869225;29;20084;-90
2023/09/28 04:14:03;;;;;;;23.65;11.10;;;;;;;13.29;76.68;100830.38;4852525;29;20071;-89
2023/09/28 04:16:54;;;;;;;26.60;13.02;;;;;;;13.33;70.27;100880.84;4881738;29;20045;-86
2023/09/28 04:19:23;;;;;;;41.90;14.27;;;;;;;13.01;70.70;100867.72;4883762;29;20126;-88
2023/09/28 04:21:50;;;;;;;31.17;13.52;;;;;;;12.87;71.33;100859.38;4868723;29;20069;-87
2023/09/28 04:24:17;;;;;;;33.42;15.55;;;;;;;12.89;71.85;100876.38;4867102;29;20037;-89
2023/09/28 04:27:11;;;;;;;25.02;14.15;;;;;;;12.97;72.18;100887.84;4882480;29;20041;-89
2023/09/28 04:29:46;;;;;;;34.90;15.05;;;;;;;12.38;72.47;100799.22;4872138;29;20053;-89
2023/09/28 04:35:00;;;;;;;23.48;13.70;;;;;;;12.51;72.50;100820.50;4883429;29;20033;-88
2023/09/28 04:37:50;;;;;;;31.67;15.57;;;;;;;12.29;72.53;100784.53;4887913;29;20055;-87
2023/09/28 04:40:32;;;;;;;25.30;13.98;;;;;;;12.82;72.91;100856.69;4825377;29;20079;-91
2023/09/28 04:44:01;;;;;;;30.65;14.63;;;;;;;13.00;73.11;100896.31;4765243;30;20583;-87
2023/09/28 04:47:33;;;;;;;25.10;14.60;;;;;;;12.98;73.54;100889.47;4793795;29;20054;-87
2023/09/28 04:50:00;;;;;;;31.02;14.70;;;;;;;12.74;73.66;100857.31;4745035;30;20104;-88
2023/09/28 04:52:48;;;;;;;45.33;15.43;;;;;;;12.71;73.58;100855.13;4794740;29;20064;-88
2023/09/28 04:55:19;;;;;;;35.80;14.50;;;;;;;12.98;73.80;100897.69;4792103;30;20035;-89
2023/09/28 04:57:53;;;;;;;28.95;14.93;;;;;;;13.07;73.76;100895.97;4792759;29;20055;-88
2023/09/28 05:00:20;;;;;;;26.67;13.95;;;;;;;12.65;73.64;100813.25;4794891;29;20034;-86
2023/09/28 05:03:35;;;;;;;24.98;12.82;;;;;;;13.25;73.50;100889.75;4782018;30;20059;-89
2023/09/28 05:06:13;;;;;;;32.90;13.05;;;;;;;13.10;73.15;100854.19;4796433;29;20062;-87
2023/09/28 05:08:39;;;;;;;22.90;13.30;;;;;;;13.24;72.68;100870.78;4789795;29;20057;-91
2023/09/28 05:15:09;;;;;;;;;;;;;;;13.57;72.78;100882.75;4878099;29;20105;-91
2023/09/28 05:18:42;;;;;;;31.35;12.55;;;;;;;13.62;72.45;100880.78;4852961;29;19924;-87
2023/09/28 05:21:53;;;;;;;38.17;12.55;;;;;;;13.67;72.16;100865.31;4875039;29;20060;-90
2023/09/28 05:24:20;;;;;;;22.77;12.77;;;;;;;13.29;72.13;100807.59;4835225;29;20141;-91
2023/09/28 05:27:36;;;;;;;21.40;13.13;;;;;;;13.81;72.06;100875.31;4841159;29;20045;-90
2023/09/28 05:30:38;;;;;;;29.75;13.25;;;;;;;13.66;71.56;100842.53;4875354;29;20053;-92
2023/09/28 05:33:13;;;;;;;24.73;12.80;;;;;;;13.83;71.48;100853.81;4873390;29;20148;-89
2023/09/28 05:35:47;;;;;;;36.00;13.60;;;;;;;13.78;71.22;100834.66;4814791;29;20060;-89
2023/09/28 05:38:44;;;;;;;18.67;12.43;;;;;;;13.56;70.27;100798.72;4854385;29;20042;-95
2023/09/28 05:41:36;;;;;;;20.63;12.02;;;;;;;14.17;69.47;100877.53;4848088;29;20057;-89
2023/09/28 05:44:07;;;;;;;24.42;12.02;;;;;;;14.15;69.66;100862.44;4842996;29;20447;-92
2023/09/28 05:46:39;;;;;;;22.98;11.95;;;;;;;14.23;68.83;100876.31;4848459;29;20021;-87
2023/09/28 05:49:13;;;;;;;20.90;10.70;;;;;;;14.32;68.51;100888.28;4873562;29;20049;-88
2023/09/28 05:51:39;;;;;;;29.08;11.50;;;;;;;14.34;68.57;100875.06;4861179;29;20030;-89
2023/09/28 05:54:17;;;;;;;24.17;11.45;;;;;;;13.94;68.66;100810.53;4853955;29;20018;-89
2023/09/28 05:57:46;;;;;;;23.30;12.35;;;;;;;14.35;68.22;100886.88;4850279;29;20049;-88
2023/09/28 06:00:41;;;;;;;33.47;12.75;;;;;;;14.34;68.08;100886.06;4871689;29;20076;-90
2023/09/28 06:06:33;;;;;;;29.42;12.88;;;;;;;13.78;68.44;100779.69;4850237;29;20033;-90
2023/09/28 06:13:50;;;;;;;31.73;14.30;;;;;;;14.71;67.78;100895.38;4844285;29;20041;-89
2023/09/28 06:16:21;;;;;;;29.35;13.93;;;;;;;14.33;68.18;100818.38;4865114;29;20033;-90
2023/09/28 06:19:14;;;;;;;32.78;13.55;;;;;;;14.96;68.23;100885.00;4907710;23;20065;-91
2023/09/28 06:28:11;;;;;;;22.50;13.80;;;;;;;14.85;67.02;100825.75;4889634;23;20048;-90
2023/09/28 06:30:40;;;;;;;47.95;19.73;;;;;;;14.86;66.92;100814.44;4882188;29;20053;-90
2023/09/28 06:33:26;;;;;;;59.00;31.70;;;;;;;15.17;66.58;100847.72;4897754;29;20045;-93
2023/09/28 06:36:19;;;;;;;40.53;22.25;;;;;;;15.46;66.53;100879.63;4894958;29;20128;-90
2023/09/28 06:38:51;;;;;;;33.20;16.20;;;;;;;15.26;66.10;100825.75;4880726;29;20052;-93
2023/09/28 06:41:49;;;;;;;30.92;13.43;;;;;;;15.44;66.49;100838.59;4896573;29;20118;-90
2023/09/28 06:44:35;;;;;;;36.33;13.65;;;;;;;15.77;65.97;100865.22;4901602;29;20108;-90
2023/09/28 06:47:57;;;;;;;27.75;12.23;;;;;;;15.64;65.80;100823.56;4856243;29;20065;-93
2023/09/28 06:50:25;;;;;;;38.10;14.60;;;;;;;15.40;65.64;100767.88;4765862;30;20066;-89
2023/09/28 06:52:51;;;;;;;19.83;11.65;;;;;;;15.86;64.46;100816.47;4782630;30;20154;-89
2023/09/28 06:55:29;;;;;;;27.07;10.83;;;;;;;15.64;64.13;100771.19;4768741;30;20068;-89
2023/09/28 06:57:57;;;;;;;22.98;10.00;;;;;;;16.06;63.89;100816.00;4749922;30;20131;-89
2023/09/28 07:00:35;;;;;;;22.58;10.32;;;;;;;16.36;62.84;100844.78;4779577;30;20074;-90
2023/09/28 07:03:05;;;;;;;29.58;10.07;;;;;;;16.34;62.60;100815.88;4779076;30;20482;-90
2023/09/28 07:05:38;;;;;;;24.85;9.65;;;;;;;16.35;62.84;100795.41;4777384;30;20081;-90
2023/09/28 07:08:08;;;;;;;30.00;8.73;;;;;;;16.23;60.91;100773.91;4786437;29;20546;-90
2023/09/28 07:10:38;;;;;;;12.93;7.57;;;;;;;16.23;61.23;100762.06;4793928;30;20722;-90
2023/09/28 07:13:07;;;;;;;17.80;7.70;;;;;;;16.80;61.24;100839.53;4778250;30;20047;-90
2023/09/28 07:15:34;;;;;;;15.05;8.00;;;;;;;16.56;61.02;100790.19;4793986;30;20066;-90
2023/09/28 07:18:33;;;;;;;15.43;7.70;;;;;;;16.96;59.75;100838.00;4796807;30;20055;-89
2023/09/28 07:21:06;;;;;;;14.70;8.43;;;;;;;16.45;60.22;100735.22;4766788;30;20066;-88
2023/09/28 07:23:34;;;;;;;19.55;8.25;;;;;;;16.77;59.89;100766.41;4822629;23;20032;-87
2023/09/28 07:26:25;;;;;;;15.00;6.97;;;;;;;16.83;59.21;100767.09;4902605;23;20139;-89
2023/09/28 07:28:55;;;;;;;15.80;7.07;;;;;;;17.00;59.26;100794.78;4872417;29;20059;-89
2023/09/28 07:31:32;;;;;;;13.82;7.00;;;;;;;16.80;58.87;100743.69;4865623;24;20604;-89
2023/09/28 07:33:58;;;;;;;;;;;;;;;17.35;58.26;100826.09;4873453;29;20070;-90
2023/09/28 07:36:36;;;;;;;19.55;7.57;;;;;;;16.92;57.79;100745.84;4871335;29;19931;-93
2023/09/28 07:39:06;;;;;;;20.13;7.55;;;;;;;17.12;58.27;100766.53;4839182;29;20061;-91
2023/09/28 07:41:51;;;;;;;16.30;6.93;;;;;;;17.09;58.03;100751.41;4852313;29;20170;-93
2023/09/28 07:44:21;;;;;;;17.52;7.40;;;;;;;17.35;57.64;100775.50;4836928;29;20049;-90
2023/09/28 07:47:03;;;;;;;14.50;7.10;;;;;;;17.77;58.15;100834.81;4820818;29;20595;-89
2023/09/28 07:49:48;;;;;;;16.98;6.65;;;;;;;17.83;57.91;100829.94;4854935;29;20056;-87
2023/09/28 07:52:19;;;;;;;17.05;7.45;;;;;;;17.31;57.35;100735.81;4840923;29;20054;-89
2023/09/28 07:54:49;;;;;;;12.45;6.90;;;;;;;17.73;57.29;100788.72;4840213;29;20038;-88
2023/09/28 07:57:18;;;;;;;14.02;6.72;;;;;;;17.51;56.88;100754.53;4819226;29;20070;-89
2023/09/28 08:00:42;;;;;;;12.57;7.10;;;;;;;18.02;56.95;100822.13;4853639;29;20050;-88
2023/09/28 08:03:17;;;;;;;19.15;6.82;;;;;;;17.65;56.41;100754.41;4826808;29;20046;-89
2023/09/28 08:05:44;;;;;;;10.57;6.07;;;;;;;18.16;56.48;100812.84;4837497;29;20116;-91
2023/09/28 08:08:42;;;;;;;12.00;5.93;;;;;;;18.23;56.01;100813.94;4862061;29;20133;-91
2023/09/28 08:11:55;;;;;;;24.55;6.38;;;;;;;18.30;56.57;100808.72;4836120;29;20145;-89
2023/09/28 08:15:11;;;;;;;20.75;6.55;;;;;;;18.43;56.46;100808.88;4833072;29;20103;-90
2023/09/28 08:17:41;;;;;;;19.08;6.15;;;;;;;18.07;54.99;100744.44;4881396;29;20043;-89
2023/09/28 08:20:09;;;;;;;11.00;5.90;;;;;;;18.21;54.80;100754.53;4825767;29;20058;-90
2023/09/28 08:23:27;;;;;;;17.20;6.28;;;;;;;18.27;54.73;100748.47;4853517;29;20082;-91
2023/09/28 08:25:57;;;;;;;16.48;5.93;;;;;;;18.38;54.76;100751.72;4826959;29;20086;-90
2023/09/28 08:28:38;;;;;;;13.13;5.80;;;;;;;18.20;54.16;100697.53;4809137;29;20125;-91
2023/09/28 08:34:54;;;;;;;10.85;4.93;;;;;;;18.74;54.24;100754.06;4786105;30;20109;-90
2023/09/28 08:37:45;;;;;;;10.52;6.07;;;;;;;19.03;53.75;100774.59;4782635;30;20039;-89
2023/09/28 08:40:13;;;;;;;11.65;6.53;;;;;;;18.97;52.98;100756.53;4972379;23;20065;-91
2023/09/28 08:43:04;;;;;;;15.20;5.97;;;;;;;18.89;52.80;100733.28;4889998;29;20033;-91
2023/09/28 08:45:42;;;;;;;16.95;5.63;;;;;;;19.20;52.51;100774.53;4921067;29;20051;-91
2023/09/28 08:48:17;;;;;;;12.07;5.68;;;;;;;18.78;52.61;100688.53;4904372;29;20060;-92
2023/09/28 08:50:56;;;;;;;22.65;7.20;;;;;;;19.36;53.59;100766.41;4888410;29;20113;-91
2023/09/28 08:53:36;;;;;;;13.00;6.70;;;;;;;19.11;52.80;100709.19;4871686;29;20045;-91
2023/09/28 08:56:17;;;;;;;14.32;9.02;;;;;;;19.29;52.32;100723.75;4906493;29;20044;-93
2023/09/28 08:59:13;;;;;;;16.25;6.60;;;;;;;19.06;51.85;100676.13;4895821;29;20093;-93
2023/09/28 09:01:42;;;;;;;13.40;6.93;;;;;;;19.32;50.36;100715.56;4904707;29;20036;-91
2023/09/28 09:04:48;;;;;;;22.80;13.40;;;;;;;19.06;50.36;100657.53;4911235;29;20048;-92
2023/09/28 09:08:01;;;;;;;19.88;5.35;;;;;;;19.41;50.25;100704.41;4920879;29;20056;-93
2023/09/28 09:11:19;;;;;;;11.38;5.32;;;;;;;19.29;51.02;100677.41;4907041;29;20108;-92
2023/09/28 09:14:33;;;;;;;14.40;5.25;;;;;;;19.30;50.89;100667.94;4865637;29;20057;-91
2023/09/28 09:18:06;;;;;;;12.90;7.03;;;;;;;19.70;51.64;100712.66;4862564;29;20054;-93
2023/09/28 09:21:05;;;;;;;33.35;18.33;;;;;;;;;;4833284;29;20190;-92
2023/09/28 09:24:50;;;;;;;34.22;8.48;;;;;;;19.77;50.37;100670.50;4865079;29;20053;-94
2023/09/28 09:27:52;;;;;;;19.13;5.85;;;;;;;20.17;51.09;100719.88;4995876;23;20049;-92
2023/09/28 09:33:16;;;;;;;8.20;4.40;;;;;;;20.14;49.62;100698.34;5075161;23;20045;-91
2023/09/28 09:36:21;;;;;;;11.65;5.10;;;;;;;20.44;49.24;100723.97;4877293;29;20040;-91
2023/09/28 09:39:06;;;;;;;12.82;5.20;;;;;;;20.22;47.52;100675.22;4799845;29;20027;-92
2023/09/28 09:42:21;;;;;;;10.20;5.03;;;;;;;20.31;48.24;100681.47;4772783;30;20074;-92
2023/09/28 09:46:20;;;;;;;12.18;4.70;;;;;;;20.43;48.39;100680.69;4812341;29;20055;-90
2023/09/28 09:49:16;;;;;;;8.43;4.93;;;;;;;20.08;47.58;100625.56;4793796;30;20039;-92
2023/09/28 09:53:01;;;;;;;8.65;5.00;;;;;;;20.41;47.34;100664.34;4780108;30;20031;-91
2023/09/28 09:59:25;;;;;;;11.13;5.40;;;;;;;20.59;46.77;100666.94;5157876;23;20055;-91
2023/09/28 10:11:17;;;;;;;8.30;5.07;;;;;;;21.15;47.56;100680.19;4875765;23;19928;-90
2023/09/28 10:16:58;;;;;;;15.80;5.10;;;;;;;21.23;46.62;100677.28;4831699;29;20034;-92
2023/09/28 10:19:31;;;;;;;19.75;5.90;;;;;;;21.29;45.94;100670.31;4981513;23;20041;-89
2023/09/28 10:21:59;;;;;;;18.58;5.43;;;;;;;21.07;45.79;100631.91;4854878;29;20092;-91
2023/09/28 10:27:37;;;;;;;8.00;4.55;;;;;;;21.35;45.69;100674.47;4929335;23;20056;-90
2023/09/28 10:30:50;;;;;;;25.73;5.50;;;;;;;21.38;45.50;100661.84;4877430;29;20151;-89
2023/09/28 10:34:35;;;;;;;9.48;4.43;;;;;;;21.45;45.26;100672.34;4902965;29;20049;-93
2023/09/28 10:37:07;;;;;;;12.20;4.47;;;;;;;21.56;45.69;100667.94;4898510;29;20049;-90
2023/09/28 10:40:22;;;;;;;15.38;4.93;;;;;;;21.20;45.19;100588.19;4913562;29;20052;-90
2023/09/28 10:43:51;;;;;;;24.65;5.13;;;;;;;21.40;44.18;100608.63;4860720;29;20140;-89
2023/09/28 10:47:05;;;;;;;42.17;6.18;;;;;;;21.81;44.83;100661.06;4840633;29;20050;-90
2023/09/28 10:52:31;;;;;;;11.45;4.72;;;;;;;21.60;43.81;100607.59;4836437;29;20061;-92
2023/09/28 10:55:52;;;;;;;17.38;4.97;;;;;;;21.92;42.88;100660.53;4817080;29;20084;-89
2023/09/28 11:02:40;;;;;;;18.45;5.00;;;;;;;21.60;43.65;100592.88;4784874;30;20091;-90
2023/09/28 11:09:14;;;;;;;46.78;6.03;;;;;;;22.10;43.03;100633.97;4771366;30;20141;-89
2023/09/28 11:11:42;;;;;;;16.98;6.00;;;;;;;22.12;43.37;100642.78;4734326;30;20051;-92
2023/09/28 11:14:10;;;;;;;36.65;5.05;;;;;;;21.69;42.82;100560.94;4753100;30;20481;-89
2023/09/28 11:16:42;;;;;;;23.02;5.72;;;;;;;21.84;42.86;100576.03;4767013;30;20055;-91
2023/09/28 11:19:14;;;;;;;9.07;5.60;;;;;;;22.13;43.04;100610.97;4771217;29;20055;-91
2023/09/28 11:22:08;;;;;;;11.70;4.97;;;;;;;22.26;42.88;100618.09;4700072;30;20133;-89
2023/09/28 11:24:46;;;;;;;;;;;;;;;22.26;42.39;100611.72;4712163;30;20568;-90
2023/09/28 11:27:14;;;;;;;7.50;5.28;;;;;;;22.33;42.33;100622.25;4697317;30;19927;-90
2023/09/28 11:29:56;;;;;;;9.00;4.70;;;;;;;22.12;41.24;100580.69;4696085;30;20045;-89
2023/09/28 11:32:24;;;;;;;8.70;4.93;;;;;;;21.85;40.59;100547.00;4698985;30;20136;-89
2023/09/28 11:40:45;;;;;;;18.08;5.32;;;;;;;22.10;40.74;100555.19;4868685;29;20057;-89
2023/09/28 11:43:12;;;;;;;20.38;6.03;;;;;;;22.10;40.35;100556.00;4886623;29;20106;-91
2023/09/28 11:49:00;;;;;;;18.63;10.27;;;;;;;22.20;39.59;100557.47;4831828;29;20111;-90
2023/09/28 11:51:26;;;;;;;14.48;4.60;;;;;;;22.45;39.17;100597.03;4807623;29;20048;-92
2023/09/28 11:54:57;;;;;;;9.40;5.35;;;;;;;22.48;39.99;100593.53;4818500;29;20054;-89
2023/09/28 12:01:05;;;;;;;24.75;6.20;;;;;;;22.44;40.49;100568.38;4787739;30;20150;-90
2023/09/28 12:03:38;;;;;;;21.13;5.45;;;;;;;22.63;39.55;100589.09;4789753;29;20074;-88
2023/09/28 12:06:05;;;;;;;26.27;5.85;;;;;;;22.55;39.30;100565.00;4771154;30;20190;-89
2023/09/28 12:08:36;;;;;;;13.73;5.55;;;;;;;22.50;39.07;100546.59;4782845;30;20047;-90
2023/09/28 12:11:05;;;;;;;17.40;6.03;;;;;;;22.43;39.72;100533.31;4767065;30;20055;-92
2023/09/28 12:13:44;;;;;;;20.35;7.13;;;;;;;22.74;39.25;100577.00;4737574;30;20530;-90
2023/09/28 12:16:37;;;;;;;10.68;5.10;;;;;;;22.66;39.30;100575.25;4751266;30;20055;-89
2023/09/28 12:19:19;;;;;;;11.45;5.47;;;;;;;22.48;39.65;100547.00;4767413;30;20059;-89
2023/09/28 12:22:37;;;;;;;15.20;4.80;;;;;;;22.69;39.70;100574.53;4766595;30;20051;-92
2023/09/28 12:30:04;;;;;;;26.15;7.47;;;;;;;22.43;39.32;100541.69;4827134;29;20076;-90
2023/09/28 12:32:47;;;;;;;17.15;7.00;;;;;;;22.58;39.83;100550.34;4802768;30;20090;-90
2023/09/28 12:35:39;;;;;;;15.20;6.25;;;;;;;22.60;39.48;100559.97;4803793;30;20044;-92
2023/09/28 12:38:33;;;;;;;97.78;8.13;;;;;;;22.23;40.14;100498.25;4764201;30;20115;-93
2023/09/28 12:41:18;;;;;;;40.03;6.72;;;;;;;22.57;39.92;100559.91;4769250;30;20096;-91
2023/09/28 12:43:45;;;;;;;12.95;5.10;;;;;;;22.25;40.17;100510.63;4768608;30;20087;-90
2023/09/28 12:46:20;;;;;;;17.98;5.07;;;;;;;22.37;40.09;100525.63;4737154;30;20059;-92
2023/09/28 12:49:36;;;;;;;16.20;5.20;;;;;;;22.58;40.08;100551.16;4749876;30;20067;-91
2023/09/28 12:52:04;;;;;;;14.95;5.45;;;;;;;22.10;39.81;100471.66;4737001;30;20056;-90
2023/09/28 12:57:44;;;;;;;8.98;5.25;;;;;;;22.62;40.29;100545.69;4910984;29;20159;-93
2023/09/28 13:00:13;;;;;;;14.20;5.80;;;;;;;22.47;40.48;100511.09;4896013;29;20075;-91
2023/09/28 13:03:18;;;;;;;18.65;5.80;;;;;;;22.09;40.05;100445.78;4891781;29;20045;-92
2023/09/28 13:06:19;;;;;;;13.82;5.95;;;;;;;22.66;40.47;100530.66;4882032;29;20137;-89
2023/09/28 13:08:54;;;;;;;14.50;5.18;;;;;;;22.20;39.52;100469.13;4882477;29;20139;-88
2023/09/28 13:11:48;;;;;;;13.93;5.43;;;;;;;22.56;39.88;100530.41;4884877;23;20440;-88
2023/09/28 13:14:27;;;;;;;10.93;6.00;;;;;;;21.99;39.29;100447.16;4882847;29;20053;-87
2023/09/28 13:16:54;;;;;;;12.50;5.70;;;;;;;22.38;39.92;100500.16;4868795;29;20198;-88
2023/09/28 13:19:25;;;;;;;7.43;5.10;;;;;;;22.22;39.45;100488.28;4895934;29;20045;-91
2023/09/28 13:22:29;;;;;;;18.65;6.28;;;;;;;22.00;39.94;100450.72;4918035;23;20036;-91
2023/09/28 13:24:55;;;;;;;15.55;5.68;;;;;;;22.39;40.23;100521.31;4893784;29;20076;-89
2023/09/28 13:28:20;;;;;;;12.82;6.57;;;;;;;22.45;40.77;100516.22;4909167;29;20092;-92
2023/09/28 13:31:17;;;;;;;12.52;5.22;;;;;;;22.38;39.68;100521.66;4898230;29;20056;-92
2023/09/28 13:33:43;;;;;;;18.83;5.80;;;;;;;22.13;40.07;100485.66;4879929;29;20072;-91
2023/09/28 13:36:12;;;;;;;17.17;7.57;;;;;;;22.36;40.30;100510.06;4896942;29;20057;-91
2023/09/28 13:39:41;;;;;;;15.00;6.43;;;;;;;21.69;41.04;100421.78;4866483;29;20064;-92
2023/09/28 13:45:51;;;;;;;22.52;6.20;;;;;;;21.69;41.33;100426.53;4892528;29;20037;-91
2023/09/28 13:49:28;;;;;;;19.83;9.30;;;;;;;22.09;40.34;100493.13;4900485;29;20055;-91
2023/09/28 13:51:57;;;;;;;21.83;6.75;;;;;;;21.65;41.82;100420.88;4893465;29;20056;-86
2023/09/28 13:54:25;;;;;;;45.67;7.22;;;;;;;21.77;41.59;100451.38;4904348;29;20041;-89
2023/09/28 13:57:14;;;;;;;16.63;6.30;;;;;;;21.71;41.99;100446.47;4888723;29;20051;-90
2023/09/28 13:59:41;;;;;;;43.95;6.40;;;;;;;21.34;42.48;100391.91;4884126;29;20049;-91
2023/09/28 14:05:11;;;;;;;30.27;4.97;;;;;;;21.66;42.69;100461.47;4977076;23;20064;-92
2023/09/28 14:07:42;;;;;;;12.85;5.35;;;;;;;21.75;42.69;100487.13;4841815;29;20068;-93
2023/09/28 14:10:12;;;;;;;15.60;5.40;;;;;;;21.45;43.01;100445.03;4917157;29;20048;-94
2023/09/28 14:12:41;;;;;;;16.08;6.38;;;;;;;21.42;43.21;100451.31;4922801;23;20063;-95
2023/09/28 14:15:19;;;;;;;19.77;7.25;;;;;;;21.59;43.19;100480.78;4884816;29;20549;-91
2023/09/28 14:18:11;;;;;;;15.77;7.10;;;;;;;21.49;43.53;100478.50;4905333;29;20055;-92
2023/09/28 14:24:46;;;;;;;25.10;6.63;;;;;;;21.33;43.81;100482.06;4881814;29;20053;-91